createdAt,value
2018-04-20T00:01:10.424Z,24.7
2018-04-20T00:11:09.355Z,24.6
2018-04-20T00:21:08.742Z,24.6
2018-04-20T00:31:07.883Z,24.6
2018-04-20T00:41:07.072Z,24.6
2018-04-20T00:51:06.514Z,24.6
2018-04-20T01:01:05.437Z,24.6
2018-04-20T01:11:04.955Z,24.6
2018-04-20T01:21:04.196Z,24.6
2018-04-20T01:31:03.663Z,24.6
2018-04-20T01:41:02.302Z,24.6
2018-04-20T01:51:01.859Z,24.6
2018-04-20T02:01:01.048Z,24.6
2018-04-20T02:11:00.267Z,24.6
2018-04-20T02:20:59.275Z,24.5
2018-04-20T02:30:59.039Z,24.5
2018-04-20T02:40:57.890Z,24.6
2018-04-20T02:50:57.164Z,24.5
2018-04-20T03:00:56.326Z,24.5
2018-04-20T03:10:55.308Z,24.4
2018-04-20T03:20:54.504Z,24.4
2018-04-20T03:30:53.753Z,24.4
2018-04-20T03:40:52.912Z,24.3
2018-04-20T03:50:52.141Z,24.3
2018-04-20T04:00:51.371Z,24.3
2018-04-20T04:10:51.006Z,24.3
2018-04-20T04:20:49.798Z,24.1
2018-04-20T04:30:49.290Z,24.2
2018-04-20T04:40:48.229Z,24.2
2018-04-20T04:50:47.441Z,24.1
2018-04-20T05:00:46.706Z,24.1
2018-04-20T05:10:45.925Z,24.1
2018-04-20T05:20:45.126Z,24.1
2018-04-20T05:30:44.307Z,24.1
2018-04-20T05:40:43.553Z,24.1
2018-04-20T05:50:42.767Z,24.1
2018-04-20T06:00:41.955Z,24.1
2018-04-20T06:10:41.180Z,24.1
2018-04-20T06:20:40.446Z,24
2018-04-20T06:30:39.607Z,24
2018-04-20T06:40:38.876Z,24
2018-04-20T06:50:38.160Z,24
2018-04-20T07:00:37.263Z,24
2018-04-20T07:10:36.906Z,23.9
2018-04-20T07:20:35.688Z,24
2018-04-20T07:30:35.029Z,24
2018-04-20T07:40:34.124Z,24
2018-04-20T07:50:33.409Z,24
2018-04-20T08:00:32.551Z,24
2018-04-20T08:10:31.845Z,24
2018-04-20T08:20:30.998Z,24
2018-04-20T08:30:30.250Z,24
2018-04-20T08:40:29.419Z,24
2018-04-20T08:50:28.717Z,24
2018-04-20T09:00:27.845Z,24
2018-04-20T09:10:27.351Z,24
2018-04-20T09:20:26.578Z,24
2018-04-20T09:30:25.568Z,24
2018-04-20T09:40:24.988Z,24.1
2018-04-20T09:50:23.923Z,24.1
2018-04-20T10:00:23.214Z,24.1
2018-04-20T10:10:22.363Z,24.1
2018-04-20T10:20:21.888Z,24.1
2018-04-20T10:30:21.132Z,24.1
2018-04-20T10:40:20.012Z,24.1
2018-04-20T10:50:19.234Z,24.1
2018-04-20T11:00:18.447Z,24.1
2018-04-20T11:10:17.692Z,24.1
2018-04-20T11:20:16.870Z,24.1
2018-04-20T11:30:16.090Z,24.1
2018-04-20T11:40:15.312Z,24.1
2018-04-20T11:50:14.811Z,24.1
2018-04-20T12:00:13.738Z,24.1
2018-04-20T12:10:12.981Z,24.1
2018-04-20T12:20:12.194Z,24.1
2018-04-20T12:30:11.406Z,24.1
2018-04-20T12:40:10.889Z,24.1
2018-04-20T12:50:09.869Z,24.1
2018-04-20T13:00:09.341Z,24.1
2018-04-20T13:10:08.561Z,24.1
2018-04-20T13:20:07.471Z,24.1
2018-04-20T13:30:06.736Z,24.1
2018-04-20T13:40:05.893Z,24.1
2018-04-20T13:50:05.128Z,24.1
2018-04-20T14:00:04.328Z,24.1
2018-04-20T14:10:03.647Z,24.1
2018-04-20T14:20:03.081Z,23.6
2018-04-20T14:30:02.595Z,23.6
2018-04-20T14:40:01.270Z,23.3
2018-04-20T14:50:00.400Z,23.3
2018-04-20T14:59:59.944Z,23.3
2018-04-20T15:09:59.148Z,22.9
2018-04-20T15:19:58.091Z,22.7
2018-04-20T15:29:57.255Z,22.8
2018-04-20T15:39:57.341Z,22.8
2018-04-20T15:49:55.698Z,22.7
2018-04-20T15:59:54.895Z,22.8
2018-04-20T16:09:54.116Z,23
2018-04-20T16:19:53.460Z,23.2
2018-04-20T16:29:52.564Z,23.3
2018-04-20T16:39:51.795Z,23.3
2018-04-20T16:49:51.259Z,23.4
2018-04-20T16:59:50.464Z,23.4
2018-04-20T17:09:49.397Z,23.4
2018-04-20T17:19:48.616Z,23.4
2018-04-20T17:29:47.842Z,23.4
2018-04-20T17:39:47.347Z,23.5
2018-04-20T17:49:46.540Z,23.5
2018-04-20T17:59:45.650Z,23.5
2018-04-20T18:09:44.690Z,23.6
2018-04-20T18:19:43.933Z,23.6
2018-04-20T18:29:43.405Z,23.6
2018-04-20T18:39:42.328Z,23.6
2018-04-20T18:49:41.881Z,23.8
2018-04-20T18:59:41.056Z,23.8
2018-04-20T19:09:39.984Z,23.8
2018-04-20T19:19:39.227Z,23.8
2018-04-20T19:29:38.466Z,23.8
2018-04-20T19:39:37.633Z,23.8
2018-04-20T19:49:36.829Z,23.8
2018-04-20T19:59:36.389Z,23.8
2018-04-20T20:09:35.575Z,23.8
2018-04-20T20:19:34.522Z,23.8
2018-04-20T20:29:33.963Z,23.8
2018-04-20T20:39:32.899Z,23.8
2018-04-20T20:49:32.108Z,23.8
2018-04-20T20:59:31.626Z,23.9
2018-04-20T21:09:30.562Z,23.9
2018-04-20T21:19:29.754Z,23.9
2018-04-20T21:29:29.045Z,23.9
2018-04-20T21:39:28.191Z,24
2018-04-20T21:49:27.446Z,24
2018-04-20T21:59:26.896Z,24
2018-04-20T22:09:25.835Z,24.1
2018-04-20T22:19:25.063Z,24.1
2018-04-20T22:29:24.832Z,24.1
2018-04-20T22:39:23.818Z,24.1
2018-04-20T22:49:22.706Z,24.1
2018-04-20T22:59:22.205Z,24.1
2018-04-20T23:09:21.135Z,24.1
2018-04-20T23:19:20.609Z,24.1
2018-04-20T23:29:19.541Z,24.1
2018-04-20T23:39:18.756Z,24.1
2018-04-20T23:49:18.442Z,24.1
2018-04-20T23:59:17.206Z,24.1
